Etusivu
METAR-TAF:

METAR-TAF

Lentoasemat :

Kittilä, Suomi

Kittilän lentoasema

Leveyspiiri: 67-42N, Pituuspiiri: 024-51E, korkeus merenpinnasta: 196 m

Tämänhetkinen sää

Tämä raportti tehtiin 19 minuuttia sitten, kello 20.50 UTC
Tuuli 10 kn lännestä/luoteesta
Lämpötila -7°C
Kosteus 73%
Ilmanpaine 999 hPa
Näkyvyys 10 km tai enemmän
ei pilviä alle 1500 m:ssä eikä cumulonimbus-pilviä

METAR: EFKT 092050Z AUTO 29010KT CAVOK M07/M11 Q0999

Aika: 23:09 (21:09 UTC)

Sääennuste

Tämä raportti tehtiin 3 tuntia ja 42 minuuttia sitten, kello 17.27 UTC
Ennuste voimassa 09. päivästä klo 18 UTC - 09. päivään klo 20 UTC
Tuuli 18 kn luoteesta
Näkyvyys 10 km tai enemmän
ei pilviä alle 1500 m:ssä eikä cumulonimbus-pilviä
Ajoittain
09. päivästä klo 18 UTC - 09. päivään klo 20 UTC
Tuuli 23 kn pohjoisen/luoteesta puuskistuen 33 kn:hen
Näkyvyys: 4000 m
heikkoa lumisadetta

TAF: EFKT 091727Z 0918/0920 32018KT CAVOK TEMPO 0918/0920 33023G33KT 4000 -SN

Säähavainnot ja -ennusteet yli 4000 lentoasemalta (METAR- ja TAF-raportit).

Käytössä olevat sääasemat on merkitty karttaan keltaisilla ja punaisilla pisteillä.

Aseta hiiri pisteen päälle nähdäksesi sääaseman nimen.

Klikkaa sitten nähdäksesi säähavainnot ja -ennusteet.

Kartan vaihtaminen: klikkaa mustalla rastilla varustettuja vihreitä pisteitä, niin voit zoomata sisään; viivalla varustettua vihreää pistettä, niin voit zoomata ulos tai vihreitä nuolia, niin pääset viereisille kartoille.


METAR-TAF: